createdAt,value
2018-08-06T00:01:38.536Z,102303.63
2018-08-06T00:04:10.047Z,102302.28
2018-08-06T00:06:42.048Z,102300.63
2018-08-06T00:09:14.960Z,102297.34
2018-08-06T00:11:46.380Z,102291.77
2018-08-06T00:14:19.491Z,102281.72
2018-08-06T00:16:53.903Z,102279.55
2018-08-06T00:19:26.852Z,102279.64
2018-08-06T00:21:59.109Z,102282.75
2018-08-06T00:24:29.017Z,102272.02
2018-08-06T00:27:04.035Z,102273.76
2018-08-06T00:29:34.048Z,102269.65
2018-08-06T00:32:06.817Z,102261.37
2018-08-06T00:34:39.936Z,102261.61
2018-08-06T00:37:11.408Z,102259.20
2018-08-06T00:39:45.987Z,102262.86
2018-08-06T00:42:20.411Z,102264.54
2018-08-06T00:44:51.914Z,102259.69
2018-08-06T00:47:24.882Z,102265.20
2018-08-06T00:49:56.561Z,102262.63
2018-08-06T00:52:26.811Z,102259.41
2018-08-06T00:54:57.162Z,102253.70
2018-08-06T00:57:29.121Z,102252.05
2018-08-06T01:00:03.496Z,102247.37
2018-08-06T01:02:33.478Z,102249.69
2018-08-06T01:05:05.861Z,102241.39
2018-08-06T01:07:37.439Z,102241.67
2018-08-06T01:10:11.352Z,102241.00
2018-08-06T01:12:42.658Z,102238.48
2018-08-06T01:15:17.265Z,102234.44
2018-08-06T01:17:50.454Z,102230.59
2018-08-06T01:20:22.837Z,102226.26
2018-08-06T01:22:55.931Z,102222.55
2018-08-06T01:25:27.418Z,102225.02
2018-08-06T01:28:01.899Z,102221.00
2018-08-06T01:30:33.580Z,102226.53
2018-08-06T01:33:06.553Z,102229.86
2018-08-06T01:35:39.566Z,102223.84
2018-08-06T01:38:11.173Z,102227.70
2018-08-06T01:40:44.341Z,102222.28
2018-08-06T01:43:15.975Z,102222.48
2018-08-06T01:45:46.071Z,102218.12
2018-08-06T01:48:17.847Z,102215.58
2018-08-06T01:50:50.734Z,102212.31
2018-08-06T01:53:22.378Z,102209.31
2018-08-06T01:55:54.466Z,102211.13
2018-08-06T01:58:27.341Z,102209.22
2018-08-06T02:01:00.255Z,102206.55
2018-08-06T02:03:30.331Z,102205.38
2018-08-06T02:06:02.398Z,102197.88
2018-08-06T02:08:37.155Z,102199.91
2018-08-06T02:11:08.614Z,102193.47
2018-08-06T02:13:42.003Z,102193.75
2018-08-06T02:16:13.564Z,102188.36
2018-08-06T02:18:45.029Z,102188.79
2018-08-06T02:21:17.993Z,102184.28
2018-08-06T02:23:52.248Z,102185.45
2018-08-06T02:26:25.570Z,102188.07
2018-08-06T02:28:55.561Z,102183.71
2018-08-06T02:31:28.089Z,102186.61
2018-08-06T02:33:59.681Z,102178.61
2018-08-06T02:36:31.136Z,102175.66
2018-08-06T02:39:04.108Z,102177.80
2018-08-06T02:41:35.916Z,102175.63
2018-08-06T02:44:06.048Z,102174.56
2018-08-06T02:46:38.462Z,102167.67
2018-08-06T02:49:13.144Z,102164.70
2018-08-06T02:51:44.609Z,102161.07
2018-08-06T02:54:16.097Z,102160.14
2018-08-06T02:56:48.275Z,102164.01
2018-08-06T02:59:18.719Z,102157.88
2018-08-06T03:01:51.635Z,102159.52
2018-08-06T03:04:24.345Z,102161.92
2018-08-06T03:06:55.797Z,102159.27
2018-08-06T03:09:25.531Z,102157.16
2018-08-06T03:11:57.017Z,102158.56
2018-08-06T03:14:27.478Z,102157.81
2018-08-06T03:16:58.892Z,102151.82
2018-08-06T03:19:31.963Z,102148.02
2018-08-06T03:22:04.979Z,102151.80
2018-08-06T03:24:38.907Z,102154.89
2018-08-06T03:27:10.601Z,102150.69
2018-08-06T03:29:44.141Z,102148.89
2018-08-06T03:32:14.183Z,102150.23
2018-08-06T03:34:47.274Z,102142.45
2018-08-06T03:37:17.178Z,102142.14
2018-08-06T03:39:48.776Z,102145.97
2018-08-06T03:42:21.846Z,102143.28
2018-08-06T03:44:53.560Z,102153.27
2018-08-06T03:47:23.785Z,102137.94
2018-08-06T03:49:53.705Z,102139.50
2018-08-06T03:52:24.098Z,102138.49
2018-08-06T03:54:56.101Z,102133.95
2018-08-06T03:57:28.412Z,102123.79
2018-08-06T04:00:00.772Z,102123.66
2018-08-06T04:02:33.730Z,102123.68
2018-08-06T04:05:05.713Z,102122.75
2018-08-06T04:07:39.261Z,102120.83
2018-08-06T04:10:17.303Z,102109.88
2018-08-06T04:12:50.573Z,102110.73
2018-08-06T04:15:23.715Z,102113.55
2018-08-06T04:17:56.874Z,102104.66
2018-08-06T04:20:28.426Z,102093.39
2018-08-06T04:23:00.174Z,102079.63
2018-08-06T04:25:33.045Z,102069.17
2018-08-06T04:28:05.954Z,102059.16
2018-08-06T04:30:38.518Z,102042.51
2018-08-06T04:33:10.424Z,102033.55
2018-08-06T04:35:41.766Z,102024.01
2018-08-06T04:38:13.271Z,102017.88
2018-08-06T04:40:46.219Z,102019.36
2018-08-06T04:43:16.290Z,102023.06
2018-08-06T04:45:47.659Z,102019.80
2018-08-06T04:48:20.694Z,102020.45
2018-08-06T04:50:55.114Z,102006.95
2018-08-06T04:53:28.060Z,101994.10
2018-08-06T04:55:58.506Z,101983.06
2018-08-06T04:58:31.404Z,101983.54
2018-08-06T05:01:03.900Z,101955.23
2018-08-06T05:03:38.212Z,101941.34
2018-08-06T05:06:11.486Z,101939.87
2018-08-06T05:08:43.064Z,101934.86
2018-08-06T05:11:16.113Z,101930.34
2018-08-06T05:13:47.887Z,101920.88
2018-08-06T05:16:21.329Z,101907.00
2018-08-06T05:18:52.849Z,101911.65
2018-08-06T05:21:24.755Z,101914.67
2018-08-06T05:24:01.629Z,101914.00
2018-08-06T05:26:34.668Z,101910.86
2018-08-06T05:29:04.938Z,101899.20
2018-08-06T05:31:37.711Z,101904.37
2018-08-06T05:34:11.388Z,101902.80
2018-08-06T05:36:44.397Z,101924.33
2018-08-06T05:39:15.937Z,101931.20
2018-08-06T05:41:48.271Z,101918.71
2018-08-06T05:44:18.459Z,101913.45
2018-08-06T05:46:52.958Z,101904.95
2018-08-06T05:49:24.834Z,101912.53
2018-08-06T05:51:54.223Z,101912.95
2018-08-06T05:54:28.601Z,101903.03
2018-08-06T05:57:01.630Z,101914.20
2018-08-06T05:59:34.427Z,101912.92
2018-08-06T06:02:08.845Z,101921.70
2018-08-06T06:04:41.684Z,101923.77
2018-08-06T06:07:14.589Z,101935.77
2018-08-06T06:09:47.535Z,101936.62
2018-08-06T06:12:18.989Z,101905.63
2018-08-06T06:14:51.915Z,101910.31
2018-08-06T06:17:24.939Z,101927.16
2018-08-06T06:19:56.286Z,101904.52
2018-08-06T06:22:27.735Z,101896.05
2018-08-06T06:25:00.670Z,101933.84
2018-08-06T06:27:33.643Z,101930.98
2018-08-06T06:30:05.543Z,101901.34
2018-08-06T06:32:40.005Z,101896.16
2018-08-06T06:35:15.131Z,101914.87
2018-08-06T06:37:45.830Z,101914.84
2018-08-06T06:40:16.052Z,101923.19
2018-08-06T06:42:50.433Z,101912.89
2018-08-06T06:45:23.262Z,101915.34
2018-08-06T06:47:53.275Z,101917.34
2018-08-06T06:50:24.617Z,101916.78
2018-08-06T06:52:56.079Z,101917.41
2018-08-06T06:55:27.498Z,101899.73
2018-08-06T06:57:59.350Z,101892.23
2018-08-06T07:00:29.775Z,101901.86
2018-08-06T07:03:01.138Z,101904.52
2018-08-06T07:05:31.735Z,101917.14
2018-08-06T07:08:03.617Z,101875.73
2018-08-06T07:10:34.171Z,101897.78
2018-08-06T07:13:05.684Z,101899.91
2018-08-06T07:15:40.279Z,101905.50
2018-08-06T07:18:10.350Z,101914.31
2018-08-06T07:20:43.195Z,101886.20
2018-08-06T07:23:14.606Z,101870.86
2018-08-06T07:25:45.945Z,101887.22
2018-08-06T07:28:17.973Z,101878.60
2018-08-06T07:30:47.912Z,101879.30
2018-08-06T07:33:20.775Z,101880.41
2018-08-06T07:35:52.332Z,101883.45
2018-08-06T07:38:24.848Z,101875.43
2018-08-06T07:40:54.738Z,101859.67
2018-08-06T07:43:24.878Z,101886.97
2018-08-06T07:45:54.780Z,101869.45
2018-08-06T07:48:27.514Z,101859.98
2018-08-06T07:51:00.677Z,101865.48
2018-08-06T07:53:33.433Z,101884.37
2018-08-06T07:56:04.814Z,101849.93
2018-08-06T07:58:38.962Z,101837.66
2018-08-06T08:01:13.103Z,101846.23
2018-08-06T08:03:45.870Z,101831.25
2018-08-06T08:06:15.799Z,101851.56
2018-08-06T08:08:47.459Z,101825.02
2018-08-06T08:11:18.791Z,101817.66
2018-08-06T08:13:50.094Z,101821.64
2018-08-06T08:16:21.925Z,101819.02
2018-08-06T08:18:53.373Z,101841.08
2018-08-06T08:21:26.241Z,101812.42
2018-08-06T08:23:57.631Z,101808.35
2018-08-06T08:26:29.128Z,101803.59
2018-08-06T08:28:59.078Z,101817.45
2018-08-06T08:31:28.995Z,101801.39
2018-08-06T08:34:01.971Z,101800.84
2018-08-06T08:36:35.046Z,101800.72
2018-08-06T08:39:11.666Z,101788.66
2018-08-06T08:41:43.600Z,101771.83
2018-08-06T08:44:14.110Z,101776.20
2018-08-06T08:46:45.951Z,101768.04
2018-08-06T08:49:15.801Z,101755.47
2018-08-06T08:51:48.691Z,101755.78
2018-08-06T08:54:20.241Z,101742.35
2018-08-06T08:56:53.004Z,101757.14
2018-08-06T08:59:24.310Z,101734.12
2018-08-06T09:01:57.628Z,101744.09
2018-08-06T09:04:27.686Z,101746.60
2018-08-06T09:06:58.087Z,101723.95
2018-08-06T09:09:29.435Z,101735.41
2018-08-06T09:12:01.586Z,101731.38
2018-08-06T09:14:31.465Z,101716.98
2018-08-06T09:17:02.832Z,101697.69
2018-08-06T09:19:37.113Z,101710.38
2018-08-06T09:22:07.767Z,101706.67
2018-08-06T09:24:40.597Z,101692.00
2018-08-06T09:27:11.935Z,101683.69
2018-08-06T09:29:41.756Z,101688.91
2018-08-06T09:32:11.669Z,101676.23
2018-08-06T09:34:45.337Z,101673.69
2018-08-06T09:37:18.555Z,101691.40
2018-08-06T09:39:53.187Z,101662.44
2018-08-06T09:42:23.076Z,101670.81
2018-08-06T09:44:53.706Z,101657.57
2018-08-06T09:47:24.290Z,101653.31
2018-08-06T09:49:54.100Z,101643.77
2018-08-06T09:52:27.933Z,101642.42
2018-08-06T09:54:58.798Z,101633.34
2018-08-06T09:57:30.191Z,101625.20
2018-08-06T09:59:59.800Z,101628.25
2018-08-06T10:02:31.227Z,101609.43
2018-08-06T10:05:04.172Z,101615.66
2018-08-06T10:07:37.676Z,101621.62
2018-08-06T10:10:15.496Z,101612.79
2018-08-06T10:12:47.521Z,101605.36
2018-08-06T10:15:19.152Z,101596.69
2018-08-06T10:17:51.523Z,101623.66
2018-08-06T10:20:26.028Z,101618.05
2018-08-06T10:22:58.952Z,101589.38
2018-08-06T10:25:32.306Z,101590.83
2018-08-06T10:28:03.689Z,101596.23
2018-08-06T10:30:35.077Z,101592.92
2018-08-06T10:33:06.476Z,101579.05
2018-08-06T10:35:40.877Z,101565.91
2018-08-06T10:38:12.401Z,101591.44
2018-08-06T10:40:42.940Z,101577.27
2018-08-06T10:43:14.318Z,101566.98
2018-08-06T10:45:46.068Z,101574.89
2018-08-06T10:48:19.040Z,101603.91
2018-08-06T10:50:51.793Z,101569.02
2018-08-06T10:53:24.837Z,101558.59
2018-08-06T10:55:56.209Z,101557.69
2018-08-06T10:58:28.047Z,101558.47
2018-08-06T11:00:59.520Z,101551.50
2018-08-06T11:03:32.312Z,101551.95
2018-08-06T11:06:02.667Z,101538.15
2018-08-06T11:08:34.608Z,101542.71
2018-08-06T11:11:06.441Z,101545.77
2018-08-06T11:13:35.764Z,101531.95
2018-08-06T11:16:07.753Z,101543.26
2018-08-06T11:18:39.615Z,101538.00
2018-08-06T11:21:12.475Z,101524.66
2018-08-06T11:23:42.324Z,101535.77
2018-08-06T11:26:13.712Z,101512.05
2018-08-06T11:28:45.025Z,101527.53
2018-08-06T11:31:16.359Z,101529.23
2018-08-06T11:33:47.816Z,101516.66
2018-08-06T11:36:17.655Z,101522.86
2018-08-06T11:38:49.482Z,101507.75
2018-08-06T11:41:19.716Z,101490.92
2018-08-06T11:43:51.091Z,101496.62
2018-08-06T11:46:22.437Z,101518.61
2018-08-06T11:48:53.862Z,101503.86
2018-08-06T11:51:26.678Z,101489.55
2018-08-06T11:53:58.060Z,101488.86
2018-08-06T11:56:30.913Z,101498.52
2018-08-06T11:59:01.874Z,101487.08
2018-08-06T12:01:33.281Z,101478.61
2018-08-06T12:04:04.706Z,101473.86
2018-08-06T12:06:38.407Z,101469.63
2018-08-06T12:09:14.524Z,101491.98
2018-08-06T12:11:46.030Z,101457.73
2018-08-06T12:14:18.884Z,101467.32
2018-08-06T12:16:53.225Z,101450.26
2018-08-06T12:19:27.777Z,101458.28
2018-08-06T12:22:00.717Z,101451.94
2018-08-06T12:24:35.390Z,101445.28
2018-08-06T12:27:07.212Z,101432.00
2018-08-06T12:29:37.061Z,101446.76
2018-08-06T12:32:10.255Z,101451.18
2018-08-06T12:34:41.587Z,101445.62
2018-08-06T12:37:12.913Z,101436.95
2018-08-06T12:39:47.215Z,101465.59
2018-08-06T12:42:18.606Z,101458.37
2018-08-06T12:44:51.399Z,101431.23
2018-08-06T12:47:25.803Z,101431.46
2018-08-06T12:49:55.712Z,101447.67
2018-08-06T12:52:26.995Z,101441.89
2018-08-06T12:55:00.147Z,101441.05
2018-08-06T12:57:32.981Z,101438.46
2018-08-06T13:00:06.187Z,101438.68
2018-08-06T13:02:38.275Z,101431.26
2018-08-06T13:05:11.454Z,101431.19
2018-08-06T13:07:43.042Z,101426.12
2018-08-06T13:10:15.599Z,101419.00
2018-08-06T13:12:49.936Z,101423.23
2018-08-06T13:15:20.375Z,101409.94
2018-08-06T13:17:51.776Z,101402.64
2018-08-06T13:20:24.799Z,101391.27
2018-08-06T13:22:56.181Z,101409.92
2018-08-06T13:25:27.399Z,101410.90
2018-08-06T13:27:57.619Z,101396.69
2018-08-06T13:30:28.981Z,101383.55
2018-08-06T13:33:02.565Z,101387.48
2018-08-06T13:35:33.004Z,101379.44
2018-08-06T13:38:02.898Z,101392.62
2018-08-06T13:40:32.731Z,101382.21
2018-08-06T13:43:04.157Z,101370.25
2018-08-06T13:45:37.016Z,101371.61
2018-08-06T13:48:10.381Z,101384.59
2018-08-06T13:50:43.255Z,101378.03
2018-08-06T13:53:15.884Z,101367.15
2018-08-06T13:55:50.099Z,101370.30
2018-08-06T13:58:22.908Z,101364.01
2018-08-06T14:00:56.359Z,101374.65
2018-08-06T14:03:29.190Z,101363.72
2018-08-06T14:06:00.640Z,101357.80
2018-08-06T14:08:31.967Z,101355.81
2018-08-06T14:11:02.427Z,101353.14
2018-08-06T14:13:34.108Z,101342.72
2018-08-06T14:16:05.471Z,101338.52
2018-08-06T14:18:36.449Z,101347.84
2018-08-06T14:21:12.072Z,101348.31
2018-08-06T14:23:45.110Z,101341.53
2018-08-06T14:26:16.714Z,101334.70
2018-08-06T14:28:48.089Z,101331.33
2018-08-06T14:31:17.898Z,101330.67
2018-08-06T14:33:51.037Z,101322.16
2018-08-06T14:36:25.311Z,101316.09
2018-08-06T14:38:58.089Z,101309.88
2018-08-06T14:41:30.888Z,101330.47
2018-08-06T14:44:01.905Z,101317.17
2018-08-06T14:46:31.668Z,101315.67
2018-08-06T14:49:03.382Z,101299.77
2018-08-06T14:51:36.288Z,101313.11
2018-08-06T14:54:10.019Z,101295.78
2018-08-06T14:56:43.222Z,101297.04
2018-08-06T14:59:13.096Z,101300.61
2018-08-06T15:01:44.507Z,101294.20
2018-08-06T15:04:17.390Z,101295.97
2018-08-06T15:06:47.325Z,101303.48
2018-08-06T15:09:17.349Z,101301.28
2018-08-06T15:11:50.156Z,101300.83
2018-08-06T15:14:20.960Z,101300.11
2018-08-06T15:16:56.247Z,101302.73
2018-08-06T15:19:28.995Z,101291.34
2018-08-06T15:22:00.398Z,101290.09
2018-08-06T15:24:34.113Z,101296.31
2018-08-06T15:27:05.804Z,101296.52
2018-08-06T15:29:37.170Z,101310.28
2018-08-06T15:32:07.125Z,101302.38
2018-08-06T15:34:37.077Z,101278.42
2018-08-06T15:37:11.238Z,101282.48
2018-08-06T15:39:44.180Z,101290.95
2018-08-06T15:42:18.454Z,101285.25
2018-08-06T15:44:49.931Z,101283.77
2018-08-06T15:47:22.844Z,101288.81
2018-08-06T15:49:55.937Z,101276.81
2018-08-06T15:52:28.846Z,101290.27
2018-08-06T15:55:00.277Z,101286.84
2018-08-06T15:57:33.356Z,101277.84
2018-08-06T16:00:04.698Z,101269.31
2018-08-06T16:02:36.655Z,101279.70
2018-08-06T16:05:09.706Z,101269.31
2018-08-06T16:07:42.848Z,101270.34
2018-08-06T16:10:15.101Z,101273.16
2018-08-06T16:12:46.541Z,101290.92
2018-08-06T16:15:18.223Z,101279.83
2018-08-06T16:17:50.797Z,101274.95
2018-08-06T16:20:22.178Z,101273.83
2018-08-06T16:22:56.444Z,101268.75
2018-08-06T16:25:26.768Z,101277.25
2018-08-06T16:27:56.785Z,101270.30
2018-08-06T16:30:27.625Z,101264.98
2018-08-06T16:33:00.524Z,101266.53
2018-08-06T16:35:33.806Z,101274.91
2018-08-06T16:38:05.181Z,101263.61
2018-08-06T16:40:35.149Z,101262.28
2018-08-06T16:43:09.588Z,101255.64
2018-08-06T16:45:42.347Z,101256.82
2018-08-06T16:48:14.234Z,101254.23
2018-08-06T16:50:47.060Z,101252.84
2018-08-06T16:53:16.998Z,101249.66
2018-08-06T16:55:52.573Z,101257.06
2018-08-06T16:58:22.492Z,101248.77
2018-08-06T17:00:53.370Z,101246.47
2018-08-06T17:03:23.803Z,101248.36
2018-08-06T17:05:56.558Z,101248.16
2018-08-06T17:08:26.454Z,101251.45
2018-08-06T17:10:59.282Z,101251.76
2018-08-06T17:13:29.240Z,101244.97
2018-08-06T17:16:02.072Z,101252.84
2018-08-06T17:18:33.498Z,101250.66
2018-08-06T17:21:02.796Z,101255.22
2018-08-06T17:23:34.216Z,101253.56
2018-08-06T17:26:07.233Z,101260.95
2018-08-06T17:28:38.509Z,101262.20
2018-08-06T17:31:09.927Z,101256.87
2018-08-06T17:33:41.455Z,101253.62
2018-08-06T17:36:13.012Z,101249.01
2018-08-06T17:38:44.318Z,101257.52
2018-08-06T17:41:16.144Z,101249.68
2018-08-06T17:43:47.966Z,101257.91
2018-08-06T17:46:17.871Z,101258.78
2018-08-06T17:48:49.310Z,101246.95
2018-08-06T17:51:19.152Z,101245.92
2018-08-06T17:53:49.136Z,101248.04
2018-08-06T17:56:19.418Z,101247.88
2018-08-06T17:58:50.742Z,101245.76
2018-08-06T18:01:20.649Z,101255.50
2018-08-06T18:03:52.206Z,101247.60
2018-08-06T18:06:22.075Z,101248.69
2018-08-06T18:08:55.224Z,101251.20
2018-08-06T18:11:28.475Z,101246.84
2018-08-06T18:13:59.936Z,101251.22
2018-08-06T18:16:32.906Z,101247.67
2018-08-06T18:19:05.192Z,101249.87
2018-08-06T18:21:36.646Z,101242.73
2018-08-06T18:24:06.788Z,101241.77
2018-08-06T18:26:40.587Z,101246.77
2018-08-06T18:29:10.421Z,101250.56
2018-08-06T18:31:42.541Z,101254.66
2018-08-06T18:34:15.427Z,101255.32
2018-08-06T18:36:48.338Z,101258.00
2018-08-06T18:39:20.800Z,101251.03
2018-08-06T18:41:53.942Z,101251.69
2018-08-06T18:44:25.289Z,101257.98
2018-08-06T18:46:55.188Z,101252.77
2018-08-06T18:49:28.062Z,101261.72
2018-08-06T18:51:59.540Z,101264.13
2018-08-06T18:54:30.862Z,101265.62
2018-08-06T18:57:01.153Z,101262.77
2018-08-06T18:59:34.058Z,101272.22
2018-08-06T19:02:03.972Z,101272.84
2018-08-06T19:04:33.915Z,101266.38
2018-08-06T19:07:03.924Z,101278.29
2018-08-06T19:09:38.318Z,101275.47
2018-08-06T19:12:32.943Z,101279.28
2018-08-06T19:15:04.321Z,101284.59
2018-08-06T19:17:37.793Z,101292.66
2018-08-06T19:20:10.894Z,101296.71
2018-08-06T19:22:40.994Z,101303.64
2018-08-06T19:25:30.033Z,101301.27
2018-08-06T19:28:01.516Z,101302.01
2018-08-06T19:30:52.238Z,101299.93
2018-08-06T19:33:23.956Z,101313.34
2018-08-06T19:35:55.924Z,101308.80
2018-08-06T19:38:27.521Z,101321.06
2018-08-06T19:40:59.052Z,101330.55
2018-08-06T19:43:41.240Z,101331.53
2018-08-06T19:46:13.440Z,101326.02
2018-08-06T19:48:44.803Z,101325.80
2018-08-06T19:51:17.703Z,101331.03
2018-08-06T19:53:49.326Z,101336.20
2018-08-06T19:56:22.524Z,101328.45
2018-08-06T19:58:55.574Z,101336.52
2018-08-06T20:01:25.499Z,101337.90
2018-08-06T20:03:56.058Z,101339.97
2018-08-06T20:06:28.275Z,101341.52
2018-08-06T20:08:58.235Z,101343.34
2018-08-06T20:11:31.600Z,101354.36
2018-08-06T20:14:04.531Z,101355.77
2018-08-06T20:16:36.030Z,101352.09
2018-08-06T20:19:09.617Z,101352.88
2018-08-06T20:21:41.123Z,101352.61
2018-08-06T20:24:12.612Z,101356.92
2018-08-06T20:26:44.371Z,101366.28
2018-08-06T20:29:17.381Z,101360.78
2018-08-06T20:31:49.120Z,101360.73
2018-08-06T20:34:19.045Z,101354.66
2018-08-06T20:36:50.629Z,101360.38
2018-08-06T20:39:23.623Z,101359.28
2018-08-06T20:41:55.192Z,101364.33
2018-08-06T20:44:25.208Z,101371.00
2018-08-06T20:46:56.752Z,101369.37
2018-08-06T20:49:28.326Z,101374.09
2018-08-06T20:52:00.042Z,101372.55
2018-08-06T20:54:30.126Z,101381.39
2018-08-06T20:57:04.524Z,101377.47
2018-08-06T20:59:34.449Z,101377.75
2018-08-06T21:02:04.419Z,101372.34
2018-08-06T21:04:36.045Z,101379.60
2018-08-06T21:07:07.662Z,101378.34
2018-08-06T21:09:40.626Z,101385.66
2018-08-06T21:12:13.432Z,101382.67
2018-08-06T21:14:43.344Z,101382.50
2018-08-06T21:17:15.294Z,101402.13
2018-08-06T21:19:46.749Z,101411.98
2018-08-06T21:22:17.456Z,101409.36
2018-08-06T21:24:48.954Z,101393.39
2018-08-06T21:27:20.621Z,101392.75
2018-08-06T21:29:51.980Z,101408.08
2018-08-06T21:32:24.993Z,101408.05
2018-08-06T21:34:55.070Z,101406.48
2018-08-06T21:37:25.088Z,101400.53
2018-08-06T21:39:57.153Z,101409.15
2018-08-06T21:42:29.957Z,101405.19
2018-08-06T21:45:01.523Z,101400.84
2018-08-06T21:47:33.800Z,101403.42
2018-08-06T21:50:05.901Z,101401.92
2018-08-06T21:52:38.268Z,101410.30
2018-08-06T21:55:12.367Z,101411.96
2018-08-06T21:57:45.326Z,101407.66
2018-08-06T22:00:31.274Z,101405.48
2018-08-06T22:03:04.608Z,101409.42
2018-08-06T22:05:36.205Z,101412.61
2018-08-06T22:08:09.233Z,101408.42
2018-08-06T22:10:40.790Z,101402.98
2018-08-06T22:13:13.864Z,101404.17
2018-08-06T22:15:45.279Z,101402.31
2018-08-06T22:18:15.056Z,101407.13
2018-08-06T22:20:47.782Z,101407.88
2018-08-06T22:23:17.707Z,101412.11
2018-08-06T22:25:49.102Z,101407.73
2018-08-06T22:28:21.936Z,101413.88
2018-08-06T22:30:51.866Z,101405.37
2018-08-06T22:33:23.891Z,101409.28
2018-08-06T22:35:55.363Z,101404.58
2018-08-06T22:38:28.266Z,101406.39
2018-08-06T22:40:58.845Z,101413.31
2018-08-06T22:43:31.767Z,101418.37
2018-08-06T22:46:03.268Z,101418.82
2018-08-06T22:48:33.418Z,101411.30
2018-08-06T22:51:06.273Z,101415.47
2018-08-06T22:53:36.878Z,101417.31
2018-08-06T22:56:13.726Z,101426.84
2018-08-06T22:58:46.984Z,101417.08
2018-08-06T23:01:18.895Z,101417.82
2018-08-06T23:03:50.366Z,101411.14
2018-08-06T23:06:23.311Z,101415.92
2018-08-06T23:08:54.973Z,101414.28
2018-08-06T23:11:29.288Z,101425.20
2018-08-06T23:13:59.817Z,101417.30
2018-08-06T23:16:32.691Z,101415.80
2018-08-06T23:19:05.575Z,101422.47
2018-08-06T23:21:38.589Z,101416.69
2018-08-06T23:24:11.620Z,101416.17
2018-08-06T23:26:43.093Z,101411.81
2018-08-06T23:29:13.068Z,101409.48
2018-08-06T23:31:46.342Z,101406.80
2018-08-06T23:34:20.818Z,101413.00
2018-08-06T23:36:52.316Z,101406.09
2018-08-06T23:39:23.827Z,101411.32
2018-08-06T23:41:55.321Z,101414.03
2018-08-06T23:44:26.716Z,101409.59
2018-08-06T23:46:56.695Z,101401.65
2018-08-06T23:49:27.135Z,101399.75
2018-08-06T23:51:57.462Z,101397.48
2018-08-06T23:54:30.308Z,101406.83
2018-08-06T23:57:01.771Z,101407.08
2018-08-06T23:59:31.675Z,101407.01
